createdAt,value
2022-11-26T00:01:21.372Z,45634.06
2022-11-26T00:03:49.419Z,45632.06
2022-11-26T00:06:26.392Z,45642.03
2022-11-26T00:08:55.671Z,45642.03
2022-11-26T00:11:22.239Z,45630.06
2022-11-26T00:13:48.717Z,45634.06
2022-11-26T00:16:15.704Z,45638.06
2022-11-26T00:18:43.126Z,45626.06
2022-11-26T00:21:23.760Z,45634.06
2022-11-26T00:23:51.741Z,45632.06
2022-11-26T00:26:21.102Z,45642.03
2022-11-26T00:29:02.172Z,45650.03
2022-11-26T00:31:29.203Z,45650.03
2022-11-26T00:33:56.380Z,45642.03
2022-11-26T00:36:30.247Z,45650.03
2022-11-26T00:39:01.900Z,45650.03
2022-11-26T00:41:38.216Z,45638.06
2022-11-26T00:44:15.149Z,45644.03
2022-11-26T00:46:41.650Z,45666.03
2022-11-26T00:49:08.072Z,45634.06
2022-11-26T00:51:34.769Z,45642.03
2022-11-26T00:54:03.877Z,45634.06
2022-11-26T00:56:36.462Z,45654.03
2022-11-26T00:59:04.880Z,45644.03
2022-11-26T01:01:32.785Z,45644.03
2022-11-26T01:03:59.510Z,45670.03
2022-11-26T01:06:32.515Z,45644.03
2022-11-26T01:09:01.314Z,45650.03
2022-11-26T01:11:27.722Z,45658.03
2022-11-26T01:13:55.415Z,45654.03
2022-11-26T01:16:27.975Z,45646.03
2022-11-26T01:18:58.495Z,45628.06
2022-11-26T01:21:27.507Z,45630.06
2022-11-26T01:23:54.462Z,45634.06
2022-11-26T01:26:24.528Z,45646.03
2022-11-26T01:28:51.110Z,45630.06
2022-11-26T01:31:22.435Z,45626.06
2022-11-26T01:33:49.511Z,45636.06
2022-11-26T01:36:31.945Z,45648.03
2022-11-26T01:39:05.869Z,45630.06
2022-11-26T01:41:59.637Z,45622.06
2022-11-26T01:44:29.789Z,45630.06
2022-11-26T01:46:57.253Z,45630.06
2022-11-26T01:49:25.212Z,45652.03
2022-11-26T01:52:23.591Z,45658.03
2022-11-26T01:54:52.400Z,45646.03
2022-11-26T01:57:23.980Z,45646.03
2022-11-26T01:59:53.956Z,45634.06
2022-11-26T02:02:23.843Z,45646.03
2022-11-26T02:05:14.408Z,45648.03
2022-11-26T02:07:41.635Z,45652.03
2022-11-26T02:10:09.545Z,45654.03
2022-11-26T02:12:37.422Z,45654.03
2022-11-26T02:15:04.796Z,45658.03
2022-11-26T02:17:37.783Z,45658.03
2022-11-26T02:20:27.834Z,45666.03
2022-11-26T02:22:57.280Z,45638.06
2022-11-26T02:25:42.713Z,45654.03
2022-11-26T02:28:26.010Z,45662.03
2022-11-26T02:31:01.588Z,45658.03
2022-11-26T02:33:34.789Z,45654.03
2022-11-26T02:36:19.455Z,45638.06
2022-11-26T02:38:46.031Z,45652.03
2022-11-26T02:41:12.497Z,45646.03
2022-11-26T02:43:39.388Z,45666.03
2022-11-26T02:46:11.685Z,45670.03
2022-11-26T02:48:45.528Z,45652.03
2022-11-26T02:51:21.453Z,45666.03
2022-11-26T02:53:51.099Z,45654.03
2022-11-26T02:56:23.280Z,45678.03
2022-11-26T02:58:50.988Z,45670.03
2022-11-26T03:01:33.927Z,45666.03
2022-11-26T03:04:08.387Z,45666.03
2022-11-26T03:06:37.077Z,45688.00
2022-11-26T03:09:04.111Z,45684.00
2022-11-26T03:11:30.778Z,45652.03
2022-11-26T03:13:57.368Z,45662.03
2022-11-26T03:16:24.229Z,45664.03
2022-11-26T03:18:50.728Z,45676.03
2022-11-26T03:21:17.277Z,45682.00
2022-11-26T03:23:43.692Z,45694.00
2022-11-26T03:26:10.112Z,45660.03
2022-11-26T03:28:36.583Z,45686.00
2022-11-26T03:31:03.022Z,45678.03
2022-11-26T03:33:29.536Z,45666.03
2022-11-26T03:35:56.037Z,45670.03
2022-11-26T03:38:22.524Z,45658.03
2022-11-26T03:41:00.472Z,45698.00
2022-11-26T03:43:27.397Z,45676.03
2022-11-26T03:45:53.980Z,45678.03
2022-11-26T03:48:20.796Z,45662.03
2022-11-26T03:50:47.217Z,45688.00
2022-11-26T03:53:13.829Z,45654.03
2022-11-26T03:55:40.859Z,45680.03
2022-11-26T03:58:07.242Z,45674.03
2022-11-26T04:00:33.807Z,45670.03
2022-11-26T04:03:00.831Z,45678.03
2022-11-26T04:05:27.268Z,45654.03
2022-11-26T04:07:54.189Z,45698.00
2022-11-26T04:10:20.673Z,45676.03
2022-11-26T04:12:47.478Z,45694.00
2022-11-26T04:15:13.935Z,45682.00
2022-11-26T04:17:40.391Z,45678.03
2022-11-26T04:20:07.425Z,45658.03
2022-11-26T04:22:33.846Z,45668.03
2022-11-26T04:25:00.294Z,45664.03
2022-11-26T04:27:26.744Z,45678.03
2022-11-26T04:29:53.153Z,45668.03
2022-11-26T04:32:19.631Z,45676.03
2022-11-26T04:34:46.063Z,45666.03
2022-11-26T04:37:12.958Z,45674.03
2022-11-26T04:39:39.389Z,45658.03
2022-11-26T04:42:05.809Z,45680.03
2022-11-26T04:44:32.252Z,45662.03
2022-11-26T04:46:58.772Z,45666.03
2022-11-26T04:49:25.312Z,45650.03
2022-11-26T04:51:51.723Z,45666.03
2022-11-26T04:54:18.145Z,45658.03
2022-11-26T04:56:44.601Z,45648.03
2022-11-26T04:59:11.145Z,45672.03
2022-11-26T05:01:37.618Z,45666.03
2022-11-26T05:04:04.276Z,45656.03
2022-11-26T05:06:30.716Z,45656.03
2022-11-26T05:08:57.223Z,45638.06
2022-11-26T05:11:23.660Z,45654.03
2022-11-26T05:13:50.154Z,45648.03
2022-11-26T05:16:16.583Z,45644.03
2022-11-26T05:18:43.320Z,45646.03
2022-11-26T05:21:09.714Z,45670.03
2022-11-26T05:23:36.163Z,45662.03
2022-11-26T05:26:02.620Z,45650.03
2022-11-26T05:28:29.132Z,45650.03
2022-11-26T05:31:03.096Z,45650.03
2022-11-26T05:33:29.736Z,45648.03
2022-11-26T05:35:56.575Z,45650.03
2022-11-26T05:38:23.150Z,45650.03
2022-11-26T05:40:49.599Z,45638.06
2022-11-26T05:43:16.440Z,45658.03
2022-11-26T05:45:42.991Z,45658.03
2022-11-26T05:48:09.472Z,45646.03
2022-11-26T05:50:36.332Z,45666.03
2022-11-26T05:53:03.116Z,45674.03
2022-11-26T05:55:29.667Z,45668.03
2022-11-26T05:57:56.097Z,45642.03
2022-11-26T06:00:22.709Z,45664.03
2022-11-26T06:02:51.636Z,45658.03
2022-11-26T06:05:18.240Z,45650.03
2022-11-26T06:07:45.195Z,45654.03
2022-11-26T06:10:12.836Z,45686.00
2022-11-26T06:12:39.337Z,45666.03
2022-11-26T06:15:06.440Z,45656.03
2022-11-26T06:17:32.883Z,45674.03
2022-11-26T06:19:59.766Z,45670.03
2022-11-26T06:22:26.247Z,45672.03
2022-11-26T06:24:52.786Z,45674.03
2022-11-26T06:27:19.260Z,45664.03
2022-11-26T06:29:45.760Z,45674.03
2022-11-26T06:32:12.168Z,45674.03
2022-11-26T06:34:38.970Z,45650.03
2022-11-26T06:37:07.079Z,45670.03
2022-11-26T06:39:33.480Z,45666.03
2022-11-26T06:41:59.886Z,45658.03
2022-11-26T06:44:26.330Z,45666.03
2022-11-26T06:46:52.707Z,45658.03
2022-11-26T06:49:19.126Z,45672.03
2022-11-26T06:51:45.640Z,45668.03
2022-11-26T06:54:12.069Z,45678.03
2022-11-26T06:56:39.288Z,45670.03
2022-11-26T06:59:06.207Z,45666.03
2022-11-26T07:01:32.640Z,45658.03
2022-11-26T07:03:59.280Z,45682.00
2022-11-26T07:06:28.367Z,45672.03
2022-11-26T07:08:57.742Z,45686.00
2022-11-26T07:11:26.035Z,45668.03
2022-11-26T07:13:52.751Z,45670.03
2022-11-26T07:16:19.301Z,45678.03
2022-11-26T07:18:51.136Z,45678.03
2022-11-26T07:21:18.443Z,45654.03
2022-11-26T07:23:45.534Z,45682.00
2022-11-26T07:26:13.677Z,45694.00
2022-11-26T07:28:40.655Z,45666.03
2022-11-26T07:31:16.168Z,45688.00
2022-11-26T07:33:43.224Z,45674.03
2022-11-26T07:36:14.858Z,45682.00
2022-11-26T07:38:41.259Z,45680.03
2022-11-26T07:41:10.679Z,45684.00
2022-11-26T07:43:39.033Z,45684.00
2022-11-26T07:46:07.572Z,45666.03
2022-11-26T07:48:35.060Z,45682.00
2022-11-26T07:51:02.301Z,45670.03
2022-11-26T07:53:33.544Z,45658.03
2022-11-26T07:56:00.417Z,45676.03
2022-11-26T07:58:26.874Z,45674.03
2022-11-26T08:00:54.773Z,45670.03
2022-11-26T08:03:21.926Z,45670.03
2022-11-26T08:05:48.303Z,45672.03
2022-11-26T08:08:14.835Z,45666.03
2022-11-26T08:10:41.280Z,45662.03
2022-11-26T08:13:07.694Z,45670.03
2022-11-26T08:15:35.391Z,45674.03
2022-11-26T08:18:01.820Z,45676.03
2022-11-26T08:20:29.208Z,45658.03
2022-11-26T08:22:55.952Z,45644.03
2022-11-26T08:25:22.351Z,45670.03
2022-11-26T08:27:49.042Z,45644.03
2022-11-26T08:30:15.585Z,45654.03
2022-11-26T08:32:41.974Z,45662.03
2022-11-26T08:35:08.523Z,45678.03
2022-11-26T08:37:35.584Z,45678.03
2022-11-26T08:40:01.943Z,45658.03
2022-11-26T08:42:28.372Z,45644.03
2022-11-26T08:44:54.892Z,45662.03
2022-11-26T08:47:21.280Z,45650.03
2022-11-26T08:49:49.521Z,45656.03
2022-11-26T08:52:16.176Z,45668.03
2022-11-26T08:54:45.297Z,45646.03
2022-11-26T08:57:12.058Z,45658.03
2022-11-26T08:59:38.451Z,45650.03
2022-11-26T09:02:04.988Z,45640.03
2022-11-26T09:04:31.874Z,45642.03
2022-11-26T09:06:58.262Z,45634.06
2022-11-26T09:09:24.719Z,45658.03
2022-11-26T09:12:00.247Z,45650.03
2022-11-26T09:14:29.082Z,45634.06
2022-11-26T09:16:57.560Z,45640.03
2022-11-26T09:19:24.738Z,45638.06
2022-11-26T09:21:51.245Z,45624.06
2022-11-26T09:24:18.058Z,45634.06
2022-11-26T09:26:44.691Z,45628.06
2022-11-26T09:29:14.168Z,45630.06
2022-11-26T09:32:00.660Z,45642.03
2022-11-26T09:34:28.399Z,45642.03
2022-11-26T09:36:54.886Z,45618.06
2022-11-26T09:39:21.263Z,45630.06
2022-11-26T09:42:03.924Z,45646.03
2022-11-26T09:45:01.319Z,45626.06
2022-11-26T09:47:37.065Z,45642.03
2022-11-26T09:50:06.120Z,45636.06
2022-11-26T09:52:50.645Z,45642.03
2022-11-26T09:55:24.288Z,45622.06
2022-11-26T09:58:12.669Z,45634.06
2022-11-26T10:00:42.751Z,45630.06
2022-11-26T10:03:15.884Z,45622.06
2022-11-26T10:05:50.298Z,45618.06
2022-11-26T10:08:26.737Z,45622.06
2022-11-26T10:11:25.813Z,45626.06
2022-11-26T10:13:59.225Z,45620.06
2022-11-26T10:16:35.614Z,45606.06
2022-11-26T10:19:09.182Z,45618.06
2022-11-26T10:21:58.173Z,45610.06
2022-11-26T10:24:34.912Z,45590.09
2022-11-26T10:27:10.145Z,45606.06
2022-11-26T10:29:47.343Z,45604.06
2022-11-26T10:32:22.699Z,45598.06
2022-11-26T10:34:57.713Z,45582.09
2022-11-26T10:37:28.210Z,45588.09
2022-11-26T10:40:02.120Z,45594.09
2022-11-26T10:42:42.297Z,45618.06
2022-11-26T10:45:21.229Z,45588.09
2022-11-26T10:47:47.665Z,45586.09
2022-11-26T10:53:19.534Z,45602.06
2022-11-26T10:55:45.995Z,45598.06
2022-11-26T10:58:20.288Z,45578.09
2022-11-26T11:00:49.735Z,45590.09
2022-11-26T11:03:38.234Z,45594.09
2022-11-26T11:06:20.159Z,45598.06
2022-11-26T11:08:48.853Z,45586.09
2022-11-26T11:11:27.009Z,45602.06
2022-11-26T11:13:54.027Z,45606.06
2022-11-26T11:16:39.707Z,45614.06
2022-11-26T11:19:21.971Z,45592.09
2022-11-26T11:21:48.776Z,45586.09
2022-11-26T11:24:26.970Z,45586.09
2022-11-26T11:26:56.620Z,45582.09
2022-11-26T11:29:34.323Z,45582.09
2022-11-26T11:32:04.312Z,45562.09
2022-11-26T11:34:35.219Z,45570.09
2022-11-26T11:37:07.296Z,45602.06
2022-11-26T11:39:35.960Z,45578.09
2022-11-26T11:42:06.580Z,45566.09
2022-11-26T11:44:45.864Z,45566.09
2022-11-26T11:47:32.276Z,45574.09
2022-11-26T11:50:23.551Z,45578.09
2022-11-26T11:52:55.938Z,45582.09
2022-11-26T11:55:30.066Z,45550.13
2022-11-26T11:58:24.407Z,45574.09
2022-11-26T12:01:25.168Z,45570.09
2022-11-26T12:04:00.785Z,45578.09
2022-11-26T12:06:50.477Z,45554.09
2022-11-26T12:09:22.293Z,45582.09
2022-11-26T12:12:10.177Z,45568.09
2022-11-26T12:14:42.791Z,45566.09
2022-11-26T12:17:17.544Z,45564.09
2022-11-26T12:20:00.883Z,45574.09
2022-11-26T12:22:35.289Z,45578.09
2022-11-26T12:25:14.260Z,45564.09
2022-11-26T12:27:52.628Z,45556.09
2022-11-26T12:30:22.817Z,45564.09
2022-11-26T12:32:57.717Z,45526.13
2022-11-26T12:35:39.431Z,45566.09
2022-11-26T12:38:29.723Z,45542.13
2022-11-26T12:41:05.858Z,45544.13
2022-11-26T12:44:10.148Z,45542.13
2022-11-26T12:46:41.502Z,45546.13
2022-11-26T12:49:28.709Z,45538.13
2022-11-26T12:52:14.431Z,45550.13
2022-11-26T12:55:01.755Z,45526.13
2022-11-26T12:57:42.620Z,45534.13
2022-11-26T13:00:25.035Z,45554.09
2022-11-26T13:02:52.598Z,45526.13
2022-11-26T13:05:25.242Z,45534.13
2022-11-26T13:08:40.011Z,45538.13
2022-11-26T13:11:18.755Z,45542.13
2022-11-26T13:13:58.635Z,45534.13
2022-11-26T13:16:52.329Z,45546.13
2022-11-26T13:19:32.012Z,45546.13
2022-11-26T13:22:11.815Z,45550.13
2022-11-26T13:24:56.436Z,45540.13
2022-11-26T13:27:44.135Z,45534.13
2022-11-26T13:30:13.343Z,45540.13
2022-11-26T13:33:17.164Z,45548.13
2022-11-26T13:36:17.437Z,45522.13
2022-11-26T13:39:21.678Z,45554.09
2022-11-26T13:42:04.022Z,45542.13
2022-11-26T13:44:55.480Z,45518.13
2022-11-26T13:47:24.898Z,45540.13
2022-11-26T13:50:05.523Z,45494.16
2022-11-26T13:52:39.900Z,45522.13
2022-11-26T13:55:16.208Z,45526.13
2022-11-26T13:57:49.352Z,45518.13
2022-11-26T14:00:33.073Z,45534.13
2022-11-26T14:03:00.513Z,45516.13
2022-11-26T14:05:51.635Z,45516.13
2022-11-26T14:08:46.322Z,45510.16
2022-11-26T14:11:33.366Z,45518.13
2022-11-26T14:14:24.635Z,45540.13
2022-11-26T14:17:12.625Z,45526.13
2022-11-26T14:19:44.978Z,45526.13
2022-11-26T14:22:11.295Z,45514.13
2022-11-26T14:24:49.731Z,45518.13
2022-11-26T14:27:23.172Z,45514.13
2022-11-26T14:30:08.633Z,45536.13
2022-11-26T14:32:54.501Z,45534.13
2022-11-26T14:35:34.755Z,45526.13
2022-11-26T14:38:04.057Z,45522.13
2022-11-26T14:40:33.389Z,45538.13
2022-11-26T14:43:19.278Z,45550.13
2022-11-26T14:45:48.156Z,45528.13
2022-11-26T14:48:22.844Z,45540.13
2022-11-26T14:50:49.797Z,45554.09
2022-11-26T14:53:16.426Z,45546.13
2022-11-26T14:55:44.779Z,45544.13
2022-11-26T14:58:29.995Z,45518.13
2022-11-26T15:01:18.827Z,45564.09
2022-11-26T15:03:57.303Z,45546.13
2022-11-26T15:06:43.173Z,45556.09
2022-11-26T15:09:16.920Z,45548.13
2022-11-26T15:12:16.086Z,45556.09
2022-11-26T15:14:52.794Z,45540.13
2022-11-26T15:17:22.556Z,45518.13
2022-11-26T15:19:53.807Z,45562.09
2022-11-26T15:22:35.174Z,45558.09
2022-11-26T15:25:01.777Z,45558.09
2022-11-26T15:27:30.224Z,45550.13
2022-11-26T15:29:56.720Z,45538.13
2022-11-26T15:32:28.995Z,45554.09
2022-11-26T15:34:58.818Z,45570.09
2022-11-26T15:37:25.407Z,45554.09
2022-11-26T15:40:22.637Z,45554.09
2022-11-26T15:42:52.203Z,45540.13
2022-11-26T15:45:21.192Z,45558.09
2022-11-26T15:47:50.804Z,45550.13
2022-11-26T15:50:25.951Z,45542.13
2022-11-26T15:53:00.569Z,45562.09
2022-11-26T15:55:30.888Z,45564.09
2022-11-26T15:58:00.209Z,45562.09
2022-11-26T16:00:34.444Z,45570.09
2022-11-26T16:03:01.166Z,45578.09
2022-11-26T16:05:30.622Z,45556.09
2022-11-26T16:07:59.578Z,45572.09
2022-11-26T16:10:27.813Z,45566.09
2022-11-26T16:13:18.153Z,45570.09
2022-11-26T16:15:47.687Z,45566.09
2022-11-26T16:18:18.315Z,45570.09
2022-11-26T16:20:45.015Z,45562.09
2022-11-26T16:23:23.968Z,45562.09
2022-11-26T16:26:08.191Z,45570.09
2022-11-26T16:28:34.717Z,45568.09
2022-11-26T16:31:01.231Z,45554.09
2022-11-26T16:33:28.882Z,45562.09
2022-11-26T16:35:55.682Z,45574.09
2022-11-26T16:38:25.415Z,45574.09
2022-11-26T16:40:52.992Z,45566.09
2022-11-26T16:43:20.340Z,45582.09
2022-11-26T16:45:49.242Z,45588.09
2022-11-26T16:48:23.751Z,45564.09
2022-11-26T16:50:50.419Z,45594.09
2022-11-26T16:53:17.041Z,45596.06
2022-11-26T16:55:43.470Z,45586.09
2022-11-26T16:58:19.479Z,45558.09
2022-11-26T17:00:45.933Z,45578.09
2022-11-26T17:03:14.415Z,45594.09
2022-11-26T17:05:41.495Z,45580.09
2022-11-26T17:08:11.736Z,45584.09
2022-11-26T17:10:38.142Z,45594.09
2022-11-26T17:13:04.599Z,45590.09
2022-11-26T17:15:30.994Z,45574.09
2022-11-26T17:18:03.436Z,45570.09
2022-11-26T17:20:30.083Z,45594.09
2022-11-26T17:22:56.462Z,45598.06
2022-11-26T17:25:22.815Z,45600.06
2022-11-26T17:27:49.292Z,45594.09
2022-11-26T17:30:19.123Z,45586.09
2022-11-26T17:32:45.616Z,45576.09
2022-11-26T17:35:12.022Z,45598.06
2022-11-26T17:37:38.914Z,45594.09
2022-11-26T17:40:15.027Z,45598.06
2022-11-26T17:42:41.594Z,45604.06
2022-11-26T17:45:08.580Z,45582.09
2022-11-26T17:47:34.946Z,45586.09
2022-11-26T17:50:01.513Z,45594.09
2022-11-26T17:52:27.970Z,45616.06
2022-11-26T17:54:54.322Z,45590.09
2022-11-26T17:57:22.716Z,45580.09
2022-11-26T17:59:49.085Z,45580.09
2022-11-26T18:02:15.479Z,45590.09
2022-11-26T18:04:41.966Z,45622.06
2022-11-26T18:07:15.770Z,45610.06
2022-11-26T18:09:42.783Z,45606.06
2022-11-26T18:12:24.870Z,45594.09
2022-11-26T18:14:53.533Z,45578.09
2022-11-26T18:17:20.040Z,45598.06
2022-11-26T18:19:46.821Z,45604.06
2022-11-26T18:22:20.586Z,45582.09
2022-11-26T18:24:57.632Z,45606.06
2022-11-26T18:27:27.507Z,45598.06
2022-11-26T18:29:53.893Z,45626.06
2022-11-26T18:32:20.892Z,45616.06
2022-11-26T18:34:50.441Z,45602.06
2022-11-26T18:37:17.251Z,45592.09
2022-11-26T18:39:43.755Z,45600.06
2022-11-26T18:44:57.694Z,45606.06
2022-11-26T18:47:24.227Z,45614.06
2022-11-26T18:49:50.982Z,45618.06
2022-11-26T18:52:17.537Z,45592.09
2022-11-26T18:54:43.918Z,45616.06
2022-11-26T18:57:10.313Z,45606.06
2022-11-26T18:59:36.968Z,45604.06
2022-11-26T19:02:03.664Z,45598.06
2022-11-26T19:04:30.114Z,45602.06
2022-11-26T19:06:56.575Z,45602.06
2022-11-26T19:09:23.913Z,45614.06
2022-11-26T19:11:52.614Z,45626.06
2022-11-26T19:14:19.026Z,45620.06
2022-11-26T19:16:48.675Z,45592.09
2022-11-26T19:19:15.059Z,45616.06
2022-11-26T19:21:41.866Z,45624.06
2022-11-26T19:24:10.434Z,45614.06
2022-11-26T19:26:37.599Z,45608.06
2022-11-26T19:29:05.769Z,45622.06
2022-11-26T19:31:39.479Z,45598.06
2022-11-26T19:34:10.316Z,45622.06
2022-11-26T19:36:37.350Z,45620.06
2022-11-26T19:39:05.070Z,45610.06
2022-11-26T19:41:32.106Z,45624.06
2022-11-26T19:44:03.965Z,45608.06
2022-11-26T19:46:30.997Z,45614.06
2022-11-26T19:48:57.559Z,45622.06
2022-11-26T19:51:25.093Z,45626.06
2022-11-26T19:53:53.941Z,45622.06
2022-11-26T19:56:23.655Z,45608.06
2022-11-26T19:58:53.673Z,45614.06
2022-11-26T20:01:21.186Z,45634.06
2022-11-26T20:03:47.910Z,45602.06
2022-11-26T20:06:20.220Z,45618.06
2022-11-26T20:08:47.611Z,45618.06
2022-11-26T20:11:15.662Z,45624.06
2022-11-26T20:13:43.773Z,45624.06
2022-11-26T20:16:13.420Z,45622.06
2022-11-26T20:18:40.617Z,45602.06
2022-11-26T20:21:09.836Z,45628.06
2022-11-26T20:23:37.438Z,45638.06
2022-11-26T20:26:04.937Z,45602.06
2022-11-26T20:28:31.303Z,45614.06
2022-11-26T20:30:57.712Z,45618.06
2022-11-26T20:33:24.144Z,45608.06
2022-11-26T20:35:51.291Z,45618.06
2022-11-26T20:38:17.769Z,45646.03
2022-11-26T20:40:45.090Z,45630.06
2022-11-26T20:43:12.103Z,45616.06
2022-11-26T20:45:38.922Z,45622.06
2022-11-26T20:48:05.701Z,45614.06
2022-11-26T20:50:32.155Z,45610.06
2022-11-26T20:52:58.504Z,45638.06
2022-11-26T20:55:25.224Z,45632.06
2022-11-26T20:57:51.772Z,45620.06
2022-11-26T21:00:23.525Z,45618.06
2022-11-26T21:02:52.723Z,45630.06
2022-11-26T21:05:19.370Z,45610.06
2022-11-26T21:07:45.839Z,45630.06
2022-11-26T21:10:13.537Z,45630.06
2022-11-26T21:12:39.927Z,45620.06
2022-11-26T21:15:06.926Z,45604.06
2022-11-26T21:17:33.457Z,45620.06
2022-11-26T21:19:59.925Z,45618.06
2022-11-26T21:22:26.355Z,45612.06
2022-11-26T21:24:52.774Z,45642.03
2022-11-26T21:27:19.165Z,45630.06
2022-11-26T21:29:46.425Z,45628.06
2022-11-26T21:32:12.879Z,45614.06
2022-11-26T21:34:39.781Z,45634.06
2022-11-26T21:37:06.200Z,45618.06
2022-11-26T21:39:32.653Z,45618.06
2022-11-26T21:41:59.009Z,45600.06
2022-11-26T21:44:25.402Z,45634.06
2022-11-26T21:46:51.815Z,45618.06
2022-11-26T21:49:18.232Z,45620.06
2022-11-26T21:51:44.724Z,45614.06
2022-11-26T21:54:11.290Z,45626.06
2022-11-26T21:56:37.955Z,45626.06
2022-11-26T21:59:04.364Z,45598.06
2022-11-26T22:01:33.886Z,45622.06
2022-11-26T22:04:07.291Z,45634.06
2022-11-26T22:06:33.987Z,45614.06
2022-11-26T22:09:00.549Z,45604.06
2022-11-26T22:11:32.723Z,45622.06
2022-11-26T22:13:59.296Z,45642.03
2022-11-26T22:16:27.437Z,45618.06
2022-11-26T22:18:55.947Z,45640.03
2022-11-26T22:21:23.680Z,45630.06
2022-11-26T22:23:51.138Z,45636.06
2022-11-26T22:26:18.477Z,45642.03
2022-11-26T22:28:45.435Z,45636.06
2022-11-26T22:31:15.283Z,45628.06
2022-11-26T22:33:41.791Z,45622.06
2022-11-26T22:36:08.540Z,45640.03
2022-11-26T22:38:36.681Z,45618.06
2022-11-26T22:41:04.417Z,45614.06
2022-11-26T22:43:31.319Z,45650.03
2022-11-26T22:45:58.523Z,45622.06
2022-11-26T22:48:25.047Z,45630.06
2022-11-26T22:50:55.738Z,45626.06
2022-11-26T22:53:22.868Z,45628.06
2022-11-26T22:55:53.828Z,45634.06
2022-11-26T22:58:21.466Z,45656.03
2022-11-26T23:00:58.592Z,45626.06
2022-11-26T23:03:26.781Z,45640.03
2022-11-26T23:05:53.515Z,45646.03
2022-11-26T23:08:21.112Z,45636.06
2022-11-26T23:10:51.115Z,45646.03
2022-11-26T23:13:17.833Z,45630.06
2022-11-26T23:15:45.702Z,45646.03
2022-11-26T23:18:14.775Z,45634.06
2022-11-26T23:20:42.693Z,45648.03
2022-11-26T23:23:09.767Z,45642.03
2022-11-26T23:25:40.470Z,45634.06
2022-11-26T23:28:07.575Z,45622.06
2022-11-26T23:30:35.648Z,45628.06
2022-11-26T23:33:02.185Z,45654.03
2022-11-26T23:35:28.726Z,45618.06
2022-11-26T23:37:55.157Z,45630.06
2022-11-26T23:40:21.616Z,45650.03
2022-11-26T23:42:48.317Z,45632.06
2022-11-26T23:45:14.691Z,45654.03
2022-11-26T23:47:41.062Z,45650.03
2022-11-26T23:50:08.145Z,45622.06
2022-11-26T23:52:36.109Z,45636.06
2022-11-26T23:55:02.769Z,45638.06
2022-11-26T23:57:29.204Z,45638.06
2022-11-26T23:59:55.638Z,45626.06
